createdAt,value
2022-08-19T00:01:37.976Z,6.30
2022-08-19T00:04:07.959Z,5.40
2022-08-19T00:06:36.402Z,5.20
2022-08-19T00:09:04.387Z,5.30
2022-08-19T00:11:32.618Z,3.00
2022-08-19T00:13:59.987Z,3.80
2022-08-19T00:16:27.756Z,4.10
2022-08-19T00:18:56.376Z,4.10
2022-08-19T00:21:24.971Z,3.80
2022-08-19T00:23:52.967Z,4.20
2022-08-19T00:26:20.788Z,4.40
2022-08-19T00:28:48.308Z,3.90
2022-08-19T00:31:17.378Z,3.60
2022-08-19T00:33:44.729Z,3.70
2022-08-19T00:36:12.273Z,4.20
2022-08-19T00:38:43.525Z,5.40
2022-08-19T00:41:13.583Z,4.30
2022-08-19T00:43:41.533Z,3.80
2022-08-19T00:46:09.152Z,3.70
2022-08-19T00:48:37.633Z,3.70
2022-08-19T00:51:05.639Z,4.30
2022-08-19T00:53:33.106Z,4.80
2022-08-19T00:56:00.790Z,3.80
2022-08-19T00:58:30.408Z,3.60
2022-08-19T01:00:57.703Z,4.30
2022-08-19T01:03:24.910Z,4.20
2022-08-19T01:05:52.847Z,4.10
2022-08-19T01:08:20.238Z,3.80
2022-08-19T01:10:50.902Z,4.00
2022-08-19T01:13:20.420Z,5.30
2022-08-19T01:16:02.428Z,6.40
2022-08-19T01:18:30.004Z,7.10
2022-08-19T01:20:59.143Z,8.00
2022-08-19T01:23:43.625Z,7.80
2022-08-19T01:26:17.144Z,8.30
2022-08-19T01:28:46.148Z,7.50
2022-08-19T01:31:27.158Z,7.20
2022-08-19T01:33:56.805Z,5.30
2022-08-19T01:36:38.703Z,5.40
2022-08-19T01:39:08.392Z,6.40
2022-08-19T01:41:35.589Z,5.60
2022-08-19T01:44:17.276Z,4.40
2022-08-19T01:46:48.349Z,4.80
2022-08-19T01:49:16.144Z,4.70
2022-08-19T01:51:43.474Z,4.60
2022-08-19T01:54:11.618Z,4.60
2022-08-19T01:56:39.904Z,4.20
2022-08-19T01:59:13.018Z,4.60
2022-08-19T02:01:40.240Z,3.40
2022-08-19T02:04:07.819Z,3.20
2022-08-19T02:06:35.591Z,3.50
2022-08-19T02:09:04.342Z,3.80
2022-08-19T02:11:34.579Z,3.80
2022-08-19T02:14:03.860Z,4.10
2022-08-19T02:16:31.718Z,4.10
2022-08-19T02:19:01.660Z,3.80
2022-08-19T02:21:30.127Z,4.00
2022-08-19T02:23:57.676Z,4.60
2022-08-19T02:26:25.048Z,4.10
2022-08-19T02:28:52.323Z,3.50
2022-08-19T02:31:21.338Z,3.00
2022-08-19T02:33:49.287Z,3.90
2022-08-19T02:36:20.816Z,4.10
2022-08-19T02:38:54.871Z,3.60
2022-08-19T02:41:26.846Z,4.10
2022-08-19T02:44:22.801Z,4.00
2022-08-19T02:46:48.252Z,4.00
2022-08-19T02:49:17.506Z,4.00
2022-08-19T02:51:46.275Z,3.90
2022-08-19T02:54:13.767Z,3.40
2022-08-19T02:56:41.743Z,3.40
2022-08-19T03:01:41.820Z,3.60
2022-08-19T03:04:10.370Z,3.90
2022-08-19T03:06:39.760Z,3.70
2022-08-19T03:09:07.318Z,3.60
2022-08-19T03:11:35.463Z,4.20
2022-08-19T03:14:03.423Z,4.00
2022-08-19T03:16:33.840Z,3.80
2022-08-19T03:19:01.556Z,3.30
2022-08-19T03:21:30.857Z,3.40
2022-08-19T03:23:59.337Z,3.60
2022-08-19T03:26:26.800Z,3.20
2022-08-19T03:28:58.662Z,3.50
2022-08-19T03:31:41.771Z,4.20
2022-08-19T03:34:14.570Z,4.00
2022-08-19T03:39:10.605Z,4.00
2022-08-19T03:41:45.306Z,2.60
2022-08-19T03:44:21.829Z,2.90
2022-08-19T03:46:51.874Z,3.40
2022-08-19T03:49:19.627Z,3.40
2022-08-19T03:51:47.817Z,3.60
2022-08-19T03:54:16.122Z,4.20
2022-08-19T03:56:44.096Z,3.70
2022-08-19T03:59:14.594Z,4.00
2022-08-19T04:01:42.169Z,2.90
2022-08-19T04:04:09.618Z,3.00
2022-08-19T04:06:38.766Z,3.30
2022-08-19T04:09:09.681Z,3.50
2022-08-19T04:11:48.231Z,3.40
2022-08-19T04:14:19.771Z,3.30
2022-08-19T04:16:47.771Z,3.60
2022-08-19T04:19:15.584Z,3.60
2022-08-19T04:21:44.462Z,4.20
2022-08-19T04:24:12.049Z,2.70
2022-08-19T04:26:40.284Z,2.80
2022-08-19T04:29:13.102Z,3.10
2022-08-19T04:31:41.169Z,3.30
2022-08-19T04:34:12.075Z,3.70
2022-08-19T04:36:42.278Z,3.50
2022-08-19T04:39:11.176Z,3.50
2022-08-19T04:41:57.780Z,3.90
2022-08-19T04:44:26.635Z,3.80
2022-08-19T04:46:54.535Z,2.80
2022-08-19T04:49:23.442Z,2.60
2022-08-19T04:51:51.241Z,3.50
2022-08-19T04:54:19.105Z,3.50
2022-08-19T04:57:08.046Z,3.10
2022-08-19T04:59:36.606Z,3.80
2022-08-19T05:02:04.609Z,4.20
2022-08-19T05:04:33.968Z,3.70
2022-08-19T05:07:04.555Z,3.40
2022-08-19T05:09:52.618Z,4.10
2022-08-19T05:12:19.229Z,2.80
2022-08-19T05:14:48.093Z,3.20
2022-08-19T05:17:37.463Z,3.60
2022-08-19T05:20:24.052Z,4.00
2022-08-19T05:22:51.355Z,3.60
2022-08-19T05:25:20.547Z,3.90
2022-08-19T05:27:48.088Z,3.20
2022-08-19T05:30:15.586Z,3.80
2022-08-19T05:32:43.143Z,3.70
2022-08-19T05:35:11.686Z,3.90
2022-08-19T05:37:41.351Z,4.00
2022-08-19T05:40:10.492Z,2.90
2022-08-19T05:42:38.762Z,3.00
2022-08-19T05:45:06.886Z,3.60
2022-08-19T05:50:04.969Z,3.30
2022-08-19T05:52:33.459Z,3.70
2022-08-19T05:57:30.001Z,3.30
2022-08-19T05:59:59.158Z,3.20
2022-08-19T06:02:32.023Z,3.10
2022-08-19T06:04:59.588Z,3.30
2022-08-19T06:07:27.065Z,3.70
2022-08-19T06:10:00.192Z,3.50
2022-08-19T06:12:36.034Z,3.20
2022-08-19T06:15:06.377Z,2.60
2022-08-19T06:17:35.863Z,2.70
2022-08-19T06:20:13.032Z,2.80
2022-08-19T06:22:47.804Z,3.20
2022-08-19T06:25:15.345Z,3.90
2022-08-19T06:30:30.765Z,3.50
2022-08-19T06:32:58.791Z,3.70
2022-08-19T06:35:26.498Z,3.30
2022-08-19T06:37:54.944Z,3.40
2022-08-19T06:40:22.886Z,3.40
2022-08-19T06:42:50.070Z,3.70
2022-08-19T06:45:24.849Z,3.00
2022-08-19T06:47:57.131Z,3.50
2022-08-19T06:50:25.290Z,2.90
2022-08-19T06:52:52.625Z,2.70
2022-08-19T06:55:20.515Z,3.00
2022-08-19T06:57:49.272Z,3.00
2022-08-19T07:00:17.119Z,3.10
2022-08-19T07:02:49.583Z,3.30
2022-08-19T07:05:23.684Z,3.10
2022-08-19T07:07:51.112Z,3.20
2022-08-19T07:10:20.180Z,3.20
2022-08-19T07:12:47.679Z,3.20
2022-08-19T07:15:16.623Z,3.20
2022-08-19T07:17:44.676Z,3.00
2022-08-19T07:20:14.068Z,3.20
2022-08-19T07:22:42.055Z,3.10
2022-08-19T07:25:10.041Z,3.10
2022-08-19T07:27:39.745Z,4.20
2022-08-19T07:30:11.600Z,4.50
2022-08-19T07:32:40.969Z,4.10
2022-08-19T07:35:09.989Z,3.20
2022-08-19T07:37:38.376Z,2.80
2022-08-19T07:40:07.658Z,2.80
2022-08-19T07:42:34.908Z,3.10
2022-08-19T07:45:02.481Z,3.40
2022-08-19T07:47:49.586Z,3.10
2022-08-19T07:50:17.309Z,3.40
2022-08-19T07:52:48.930Z,3.20
2022-08-19T07:55:40.403Z,3.50
2022-08-19T07:58:06.127Z,3.30
2022-08-19T08:00:33.595Z,3.40
2022-08-19T08:03:00.757Z,3.10
2022-08-19T08:05:46.923Z,3.40
2022-08-19T08:08:44.275Z,3.50
2022-08-19T08:11:15.504Z,3.10
2022-08-19T08:13:43.423Z,3.50
2022-08-19T08:16:13.968Z,3.20
2022-08-19T08:18:43.469Z,3.10
2022-08-19T08:21:18.095Z,3.30
2022-08-19T08:23:45.442Z,3.00
2022-08-19T08:26:14.119Z,3.00
2022-08-19T08:28:49.420Z,2.70
2022-08-19T08:31:17.074Z,3.00
2022-08-19T08:36:12.933Z,3.60
2022-08-19T08:38:42.531Z,3.00
2022-08-19T08:41:32.760Z,3.20
2022-08-19T08:44:00.426Z,3.30
2022-08-19T08:47:03.895Z,3.10
2022-08-19T08:49:44.056Z,3.20
2022-08-19T08:52:14.705Z,3.80
2022-08-19T08:54:48.784Z,3.20
2022-08-19T08:57:40.628Z,3.40
2022-08-19T09:00:20.864Z,3.50
2022-08-19T09:02:50.699Z,3.40
2022-08-19T09:05:22.309Z,3.10
2022-08-19T09:08:03.654Z,3.20
2022-08-19T09:10:55.324Z,3.60
2022-08-19T09:13:25.744Z,3.10
2022-08-19T09:16:07.642Z,3.60
2022-08-19T09:18:42.096Z,3.80
2022-08-19T09:21:10.140Z,3.30
2022-08-19T09:23:38.116Z,3.10
2022-08-19T09:26:16.363Z,3.10
2022-08-19T09:28:45.605Z,3.00
2022-08-19T09:31:24.122Z,3.40
2022-08-19T09:33:52.630Z,3.40
2022-08-19T09:36:31.209Z,3.60
2022-08-19T09:39:02.938Z,3.40
2022-08-19T09:41:30.251Z,3.20
2022-08-19T09:43:58.237Z,3.70
2022-08-19T09:46:29.210Z,3.70
2022-08-19T09:48:59.427Z,3.60
2022-08-19T09:51:34.194Z,3.60
2022-08-19T09:54:04.541Z,3.30
2022-08-19T09:56:32.678Z,3.40
2022-08-19T09:59:02.450Z,3.40
2022-08-19T10:01:31.583Z,3.10
2022-08-19T10:03:59.602Z,3.50
2022-08-19T10:06:46.100Z,3.90
2022-08-19T10:09:15.988Z,3.60
2022-08-19T10:11:54.669Z,3.20
2022-08-19T10:14:24.536Z,3.70
2022-08-19T10:16:52.964Z,3.40
2022-08-19T10:19:25.755Z,3.60
2022-08-19T10:21:55.729Z,3.40
2022-08-19T10:24:29.066Z,3.70
2022-08-19T10:26:58.805Z,3.00
2022-08-19T10:29:33.049Z,3.30
2022-08-19T10:32:02.846Z,3.40
2022-08-19T10:34:30.763Z,3.60
2022-08-19T10:37:01.214Z,3.30
2022-08-19T10:39:31.293Z,3.40
2022-08-19T10:41:59.005Z,3.40
2022-08-19T10:44:32.339Z,3.30
2022-08-19T10:47:00.535Z,3.30
2022-08-19T10:49:28.067Z,3.60
2022-08-19T10:52:18.629Z,3.70
2022-08-19T10:55:08.294Z,3.10
2022-08-19T10:57:59.179Z,3.30
2022-08-19T11:00:24.312Z,3.40
2022-08-19T11:02:52.215Z,3.20
2022-08-19T11:05:19.833Z,3.20
2022-08-19T11:07:47.238Z,2.80
2022-08-19T11:10:20.865Z,2.90
2022-08-19T11:12:49.365Z,2.80
2022-08-19T11:15:16.932Z,2.80
2022-08-19T11:17:44.842Z,2.60
2022-08-19T11:22:41.825Z,3.10
2022-08-19T11:25:10.565Z,3.00
2022-08-19T11:27:44.745Z,3.00
2022-08-19T11:30:13.436Z,3.10
2022-08-19T11:32:45.878Z,2.90
2022-08-19T11:35:17.069Z,2.60
2022-08-19T11:37:44.409Z,2.80
2022-08-19T11:40:12.469Z,3.20
2022-08-19T11:45:26.000Z,3.10
2022-08-19T11:47:53.461Z,2.90
2022-08-19T11:50:20.954Z,2.90
2022-08-19T11:52:48.207Z,3.60
2022-08-19T11:55:15.638Z,2.90
2022-08-19T11:57:44.796Z,3.30
2022-08-19T12:00:14.096Z,3.10
2022-08-19T12:02:42.226Z,3.00
2022-08-19T12:05:12.674Z,3.00
2022-08-19T12:07:42.560Z,2.80
2022-08-19T12:10:10.652Z,2.90
2022-08-19T12:12:43.789Z,3.40
2022-08-19T12:15:13.871Z,3.10
2022-08-19T12:17:42.736Z,2.90
2022-08-19T12:20:14.413Z,3.10
2022-08-19T12:22:42.270Z,3.00
2022-08-19T12:25:10.780Z,3.10
2022-08-19T12:27:41.660Z,2.80
2022-08-19T12:30:12.032Z,3.00
2022-08-19T12:32:39.504Z,2.90
2022-08-19T12:35:07.655Z,3.20
2022-08-19T12:40:03.290Z,2.90
2022-08-19T12:42:31.642Z,2.90
2022-08-19T12:44:59.108Z,3.00
2022-08-19T12:47:27.601Z,3.30
2022-08-19T12:49:56.118Z,3.10
2022-08-19T12:52:25.113Z,3.80
2022-08-19T12:54:53.982Z,3.70
2022-08-19T12:57:31.475Z,5.70
2022-08-19T13:00:05.927Z,4.80
2022-08-19T13:02:38.690Z,3.80
2022-08-19T13:05:12.101Z,3.70
2022-08-19T13:07:40.351Z,3.50
2022-08-19T13:12:36.160Z,2.80
2022-08-19T13:15:03.742Z,2.60
2022-08-19T13:17:39.226Z,2.90
2022-08-19T13:20:11.421Z,3.20
2022-08-19T13:22:38.747Z,3.50
2022-08-19T13:25:07.400Z,2.90
2022-08-19T13:27:34.862Z,3.00
2022-08-19T13:30:21.198Z,2.80
2022-08-19T13:33:07.375Z,2.90
2022-08-19T13:35:34.654Z,2.70
2022-08-19T13:38:05.893Z,2.90
2022-08-19T13:40:40.157Z,3.20
2022-08-19T13:43:22.325Z,3.10
2022-08-19T13:45:53.799Z,2.70
2022-08-19T13:48:20.922Z,3.00
2022-08-19T13:50:49.199Z,2.80
2022-08-19T13:53:16.681Z,3.00
2022-08-19T13:58:11.996Z,2.90
2022-08-19T14:00:42.003Z,2.70
2022-08-19T14:03:09.590Z,2.70
2022-08-19T14:05:37.177Z,3.20
2022-08-19T14:08:04.557Z,2.70
2022-08-19T14:10:33.093Z,2.80
2022-08-19T14:13:02.404Z,2.80
2022-08-19T14:15:30.014Z,3.10
2022-08-19T14:17:57.435Z,3.30
2022-08-19T14:20:25.950Z,3.30
2022-08-19T14:22:54.011Z,2.90
2022-08-19T14:25:23.435Z,3.10
2022-08-19T14:27:51.049Z,2.60
2022-08-19T14:30:21.354Z,3.20
2022-08-19T14:32:48.925Z,2.90
2022-08-19T14:35:16.391Z,3.10
2022-08-19T14:37:46.193Z,3.10
2022-08-19T14:40:18.910Z,3.00
2022-08-19T14:42:46.532Z,2.80
2022-08-19T14:45:13.692Z,2.70
2022-08-19T14:47:41.294Z,3.20
2022-08-19T14:50:17.683Z,3.00
2022-08-19T14:52:49.325Z,3.10
2022-08-19T14:55:17.738Z,2.90
2022-08-19T14:57:45.442Z,2.80
2022-08-19T15:00:16.552Z,3.20
2022-08-19T15:02:46.888Z,2.70
2022-08-19T15:05:14.323Z,3.00
2022-08-19T15:07:43.087Z,3.20
2022-08-19T15:10:12.000Z,2.90
2022-08-19T15:12:43.355Z,2.70
2022-08-19T15:15:15.287Z,2.90
2022-08-19T15:17:45.337Z,3.10
2022-08-19T15:20:15.648Z,2.80
2022-08-19T15:22:43.375Z,3.00
2022-08-19T15:25:11.950Z,2.80
2022-08-19T15:27:40.737Z,3.10
2022-08-19T15:30:09.975Z,3.10
2022-08-19T15:32:37.713Z,2.80
2022-08-19T15:35:06.291Z,2.80
2022-08-19T15:37:35.186Z,2.80
2022-08-19T15:40:06.503Z,2.70
2022-08-19T15:42:34.034Z,3.00
2022-08-19T15:45:02.676Z,3.20
2022-08-19T15:47:34.629Z,3.10
2022-08-19T15:50:23.827Z,3.30
2022-08-19T15:52:56.616Z,2.90
2022-08-19T15:55:33.275Z,7.90
2022-08-19T15:58:29.501Z,3.60
2022-08-19T16:01:21.358Z,4.60
2022-08-19T16:04:13.889Z,4.10
2022-08-19T16:06:44.698Z,3.60
2022-08-19T16:09:13.155Z,3.70
2022-08-19T16:14:15.404Z,3.90
2022-08-19T16:16:42.698Z,3.40
2022-08-19T16:19:10.586Z,2.70
2022-08-19T16:21:41.452Z,2.90
2022-08-19T16:24:13.013Z,3.10
2022-08-19T16:26:40.988Z,3.80
2022-08-19T16:29:13.043Z,5.20
2022-08-19T16:31:43.528Z,5.20
2022-08-19T16:34:11.130Z,4.50
2022-08-19T16:36:42.048Z,3.70
2022-08-19T16:39:11.302Z,3.50
2022-08-19T16:41:40.818Z,4.00
2022-08-19T16:44:08.630Z,7.30
2022-08-19T16:46:37.400Z,4.90
2022-08-19T16:49:05.167Z,4.40
2022-08-19T16:51:33.927Z,4.40
2022-08-19T16:54:01.918Z,4.00
2022-08-19T16:56:29.690Z,4.50
2022-08-19T16:58:58.590Z,3.70
2022-08-19T17:01:27.404Z,3.40
2022-08-19T17:03:55.064Z,3.10
2022-08-19T17:06:26.184Z,3.10
2022-08-19T17:08:55.131Z,3.00
2022-08-19T17:11:24.536Z,3.50
2022-08-19T17:16:22.387Z,5.00
2022-08-19T17:18:52.480Z,3.10
2022-08-19T17:21:27.900Z,3.00
2022-08-19T17:23:56.254Z,3.00
2022-08-19T17:28:51.773Z,4.60
2022-08-19T17:31:20.184Z,3.10
2022-08-19T17:33:48.084Z,3.40
2022-08-19T17:38:46.453Z,3.20
2022-08-19T17:41:13.752Z,3.60
2022-08-19T17:43:43.767Z,3.70
2022-08-19T17:46:17.866Z,3.70
2022-08-19T17:48:51.893Z,3.00
2022-08-19T17:51:33.565Z,2.70
2022-08-19T17:54:01.046Z,2.40
2022-08-19T17:56:30.974Z,2.60
2022-08-19T17:59:00.537Z,2.60
2022-08-19T18:01:34.112Z,3.90
2022-08-19T18:04:17.338Z,4.40
2022-08-19T18:06:46.037Z,5.00
2022-08-19T18:09:38.600Z,4.30
2022-08-19T18:12:13.272Z,4.40
2022-08-19T18:14:40.768Z,3.50
2022-08-19T18:17:13.414Z,2.60
2022-08-19T18:19:43.024Z,3.10
2022-08-19T18:22:36.505Z,2.70
2022-08-19T18:25:08.207Z,2.70
2022-08-19T18:27:35.379Z,2.80
2022-08-19T18:30:03.848Z,2.80
2022-08-19T18:32:34.109Z,2.50
2022-08-19T18:35:02.802Z,2.80
2022-08-19T18:37:30.168Z,2.80
2022-08-19T18:40:16.500Z,2.80
2022-08-19T18:43:23.154Z,2.50
2022-08-19T18:46:09.326Z,2.50
2022-08-19T18:48:55.936Z,3.00
2022-08-19T18:51:27.783Z,2.40
2022-08-19T18:53:59.014Z,2.80
2022-08-19T18:56:29.496Z,2.80
2022-08-19T18:58:56.841Z,2.40
2022-08-19T19:01:31.033Z,2.30
2022-08-19T19:04:04.920Z,2.60
2022-08-19T19:06:40.578Z,2.70
2022-08-19T19:09:14.286Z,2.00
2022-08-19T19:11:45.913Z,2.10
2022-08-19T19:14:27.715Z,2.00
2022-08-19T19:17:04.754Z,2.20
2022-08-19T19:19:32.955Z,2.30
2022-08-19T19:22:01.272Z,2.40
2022-08-19T19:24:30.646Z,2.30
2022-08-19T19:27:05.791Z,2.60
2022-08-19T19:29:35.803Z,2.30
2022-08-19T19:32:07.235Z,2.80
2022-08-19T19:34:34.669Z,2.40
2022-08-19T19:37:02.276Z,3.00
2022-08-19T19:39:45.222Z,2.20
2022-08-19T19:42:19.707Z,2.50
2022-08-19T19:44:50.502Z,2.00
2022-08-19T19:47:19.250Z,1.50
2022-08-19T19:52:39.180Z,2.10
2022-08-19T19:55:07.099Z,2.20
2022-08-19T19:57:34.243Z,3.00
2022-08-19T20:00:01.798Z,2.80
2022-08-19T20:02:32.087Z,2.20
2022-08-19T20:04:59.442Z,2.70
2022-08-19T20:07:46.904Z,2.60
2022-08-19T20:10:14.252Z,2.70
2022-08-19T20:12:41.695Z,2.40
2022-08-19T20:15:10.451Z,2.60
2022-08-19T20:17:42.424Z,2.30
2022-08-19T20:20:14.362Z,2.80
2022-08-19T20:22:43.119Z,1.80
2022-08-19T20:25:14.460Z,2.40
2022-08-19T20:27:42.294Z,2.50
2022-08-19T20:30:19.399Z,1.90
2022-08-19T20:32:48.206Z,2.40
2022-08-19T20:35:18.400Z,2.10
2022-08-19T20:37:45.791Z,2.50
2022-08-19T20:40:13.582Z,2.40
2022-08-19T20:42:41.603Z,2.20
2022-08-19T20:45:32.256Z,2.60
2022-08-19T20:48:02.984Z,2.60
2022-08-19T20:50:31.975Z,2.60
2022-08-19T20:52:59.401Z,2.50
2022-08-19T20:55:27.421Z,1.90
2022-08-19T20:57:54.992Z,1.90
2022-08-19T21:00:22.503Z,2.10
2022-08-19T21:02:49.737Z,2.50
2022-08-19T21:05:16.970Z,2.30
2022-08-19T21:07:44.430Z,2.50
2022-08-19T21:10:12.257Z,2.60
2022-08-19T21:12:39.978Z,2.30
2022-08-19T21:15:08.183Z,2.40
2022-08-19T21:17:35.390Z,2.90
2022-08-19T21:20:05.895Z,2.70
2022-08-19T21:22:34.074Z,2.30
2022-08-19T21:25:02.571Z,2.00
2022-08-19T21:27:30.301Z,1.90
2022-08-19T21:29:57.363Z,2.40
2022-08-19T21:32:24.610Z,2.40
2022-08-19T21:34:52.897Z,2.10
2022-08-19T21:37:25.608Z,2.60
2022-08-19T21:39:56.480Z,2.70
2022-08-19T21:42:24.169Z,2.40
2022-08-19T21:44:51.590Z,2.50
2022-08-19T21:47:19.325Z,2.40
2022-08-19T21:49:46.603Z,2.80
2022-08-19T21:52:13.929Z,2.80
2022-08-19T21:54:42.329Z,2.00
2022-08-19T21:57:10.603Z,2.00
2022-08-19T21:59:44.014Z,2.10
2022-08-19T22:02:20.513Z,2.00
2022-08-19T22:04:51.651Z,2.50
2022-08-19T22:07:19.495Z,2.40
2022-08-19T22:09:47.758Z,3.00
2022-08-19T22:12:30.428Z,2.30
2022-08-19T22:14:58.373Z,2.60
2022-08-19T22:17:27.426Z,2.70
2022-08-19T22:19:56.146Z,2.60
2022-08-19T22:24:52.506Z,1.90
2022-08-19T22:27:20.236Z,2.10
2022-08-19T22:29:48.119Z,2.20
2022-08-19T22:32:28.258Z,2.60
2022-08-19T22:35:00.686Z,2.10
2022-08-19T22:37:29.526Z,2.50
2022-08-19T22:39:56.723Z,2.50
2022-08-19T22:42:25.659Z,2.40
2022-08-19T22:44:59.088Z,2.60
2022-08-19T22:47:27.173Z,2.50
2022-08-19T22:49:57.480Z,2.50
2022-08-19T22:52:25.654Z,2.40
2022-08-19T22:54:55.265Z,1.90
2022-08-19T22:57:22.696Z,1.60
2022-08-19T22:59:51.287Z,2.50
2022-08-19T23:02:24.486Z,2.30
2022-08-19T23:04:51.779Z,2.40
2022-08-19T23:07:23.574Z,2.60
2022-08-19T23:09:51.654Z,2.40
2022-08-19T23:12:27.616Z,2.90
2022-08-19T23:14:55.038Z,2.90
2022-08-19T23:17:23.175Z,2.70
2022-08-19T23:19:50.894Z,2.80
2022-08-19T23:22:18.956Z,1.90
2022-08-19T23:24:46.451Z,1.90
2022-08-19T23:27:32.486Z,2.20
2022-08-19T23:30:18.397Z,2.00
2022-08-19T23:32:46.526Z,2.40
2022-08-19T23:35:13.748Z,2.60
2022-08-19T23:37:40.789Z,2.50
2022-08-19T23:40:09.184Z,3.00
2022-08-19T23:42:37.032Z,2.70
2022-08-19T23:45:06.848Z,2.70
2022-08-19T23:47:35.325Z,1.90
2022-08-19T23:50:06.048Z,1.70
2022-08-19T23:52:34.629Z,2.40
2022-08-19T23:55:02.975Z,2.50
2022-08-19T23:57:30.366Z,2.60
2022-08-19T23:59:57.701Z,2.60
